Accueil
METAR-TAF:

METAR-TAF

Aéroports :

Trévise, Italie

latitude: 45-41N, longitude: 012-06E, altitude: 45 m

Observation

Le bulletin a été fait il y a 34 minutes, à 00:55 UTC
Vent 5 kt de nord/nord-ouest
Température 20°C
Humidité 64%
Pression 1016 hPa
Visibilité 10 km ou plus
Nuages fragmentés à une hauteur de 6000 ft

METAR: LIPS 210055Z 34005KT 9999 BKN060 20/13 Q1016 RMK BKN VIS MIN 9999 WIND THR26 35004KT WIND THR08 01006KT BLU

Heure: 03:29 (01:29 UTC)

Prévision

Le bulletin a été fait il y a 2 heures et 29 minutes, à 23:00 UTC
Prévision valable du 21 à 00 UTC au 21 à 09 UTC
Vent 10 kt de est/nord-est
Visibilité 10 km ou plus
Nuages épars à une hauteur de 4000 ft

TAF: LIPS 202300Z 2100/2109 07010KT 9999 SCT040

Observations et prévisions météorologiques de plus de 4000 aéroports (messages METAR et TAF).

Les stations disponibles sont représentées par des disques jaunes et rouges sur la carte.

Passer la souris dessus pour voir le nom de la station.

Cliquer dessus pour voir les observations et prévisions météorologiques.

Pour changer de carte: cliquez sur les boutons verts avec une croix noire pour zoomer, sur le bouton vert avec un tiret pour effectuer un zoom arrière, ou sur les flèches vertes pour les cartes adjacentes.


METAR-TAF: